createdAt,value
2022-10-03T00:00:14.671Z,36.50
2022-10-03T00:03:20.843Z,36.20
2022-10-03T00:06:06.273Z,36.30
2022-10-03T00:08:56.742Z,36.20
2022-10-03T00:11:36.226Z,36.40
2022-10-03T00:14:13.705Z,36.30
2022-10-03T00:16:53.643Z,36.20
2022-10-03T00:19:32.024Z,36.20
2022-10-03T00:22:18.379Z,36.30
2022-10-03T00:25:03.447Z,35.90
2022-10-03T00:27:37.935Z,35.90
2022-10-03T00:30:19.394Z,36.20
2022-10-03T00:33:14.265Z,36.20
2022-10-03T00:35:59.884Z,36.40
2022-10-03T00:39:08.511Z,35.90
2022-10-03T00:42:17.428Z,36.60
2022-10-03T00:45:29.803Z,35.70
2022-10-03T00:48:46.187Z,36.60
2022-10-03T00:51:32.245Z,36.50
2022-10-03T00:54:26.331Z,36.30
2022-10-03T00:57:22.068Z,36.40
2022-10-03T01:00:13.268Z,36.40
2022-10-03T01:02:56.177Z,36.50
2022-10-03T01:05:36.234Z,36.30
2022-10-03T01:08:31.616Z,36.20
2022-10-03T01:11:07.180Z,36.60
2022-10-03T01:13:50.009Z,36.50
2022-10-03T01:16:31.172Z,36.20
2022-10-03T01:19:18.101Z,36.20
2022-10-03T01:22:05.529Z,36.70
2022-10-03T01:24:55.434Z,36.80
2022-10-03T01:28:00.482Z,36.80
2022-10-03T01:30:38.720Z,36.10
2022-10-03T01:33:16.062Z,36.30
2022-10-03T01:35:56.166Z,36.50
2022-10-03T01:38:37.457Z,36.70
2022-10-03T01:41:13.156Z,36.30
2022-10-03T01:43:49.176Z,35.90
2022-10-03T01:46:23.828Z,36.00
2022-10-03T01:49:00.516Z,36.50
2022-10-03T01:51:34.705Z,36.70
2022-10-03T01:54:17.182Z,36.20
2022-10-03T01:56:54.474Z,36.60
2022-10-03T01:59:35.037Z,36.50
2022-10-03T02:02:17.794Z,36.70
2022-10-03T02:04:54.150Z,36.20
2022-10-03T02:07:30.896Z,36.60
2022-10-03T02:10:09.853Z,36.40
2022-10-03T02:12:42.624Z,36.50
2022-10-03T02:15:19.544Z,36.20
2022-10-03T02:17:57.787Z,36.70
2022-10-03T02:20:36.053Z,36.60
2022-10-03T02:23:24.360Z,36.60
2022-10-03T02:26:05.575Z,36.60
2022-10-03T02:28:55.218Z,35.80
2022-10-03T02:32:08.999Z,36.30
2022-10-03T02:35:11.073Z,36.30
2022-10-03T02:38:10.473Z,36.20
2022-10-03T02:41:20.858Z,35.90
2022-10-03T02:44:22.679Z,36.50
2022-10-03T02:47:36.658Z,36.30
2022-10-03T02:50:51.341Z,36.30
2022-10-03T02:54:10.933Z,36.50
2022-10-03T02:57:22.214Z,36.60
2022-10-03T03:00:08.219Z,36.70
2022-10-03T03:03:38.891Z,36.70
2022-10-03T03:06:52.679Z,36.60
2022-10-03T03:10:26.587Z,36.10
2022-10-03T03:13:30.739Z,36.30
2022-10-03T03:16:50.532Z,36.40
2022-10-03T03:19:45.213Z,36.60
2022-10-03T03:22:33.019Z,36.40
2022-10-03T03:25:17.629Z,36.60
2022-10-03T03:28:01.949Z,36.50
2022-10-03T03:30:39.698Z,36.60
2022-10-03T03:33:16.876Z,36.80
2022-10-03T03:36:00.064Z,36.40
2022-10-03T03:38:38.806Z,36.30
2022-10-03T03:41:22.785Z,36.60
2022-10-03T03:44:45.926Z,36.60
2022-10-03T03:47:43.214Z,36.40
2022-10-03T03:50:28.489Z,35.90
2022-10-03T03:53:38.235Z,36.60
2022-10-03T03:56:31.054Z,36.40
2022-10-03T03:59:15.199Z,36.70
2022-10-03T04:02:05.144Z,36.90
2022-10-03T04:04:57.416Z,37.00
2022-10-03T04:07:43.392Z,36.50
2022-10-03T04:10:28.255Z,36.80
2022-10-03T04:13:29.610Z,36.70
2022-10-03T04:16:41.777Z,37.00
2022-10-03T04:19:18.633Z,36.80
2022-10-03T04:22:22.702Z,36.90
2022-10-03T04:25:22.861Z,37.00
2022-10-03T04:28:34.280Z,36.90
2022-10-03T04:31:19.631Z,36.50
2022-10-03T04:34:06.065Z,36.90
2022-10-03T04:37:13.585Z,36.90
2022-10-03T04:39:53.814Z,37.00
2022-10-03T04:42:46.246Z,37.00
2022-10-03T04:45:29.320Z,37.20
2022-10-03T04:48:07.483Z,37.00
2022-10-03T04:50:42.642Z,37.10
2022-10-03T04:53:25.145Z,36.70
2022-10-03T04:56:01.885Z,36.90
2022-10-03T04:58:40.500Z,37.00
2022-10-03T05:01:16.836Z,37.00
2022-10-03T05:03:58.248Z,36.80
2022-10-03T05:06:47.951Z,36.80
2022-10-03T05:09:29.156Z,37.10
2022-10-03T05:12:08.389Z,36.90
2022-10-03T05:15:05.601Z,36.90
2022-10-03T05:17:48.224Z,37.10
2022-10-03T05:20:28.308Z,37.10
2022-10-03T05:23:08.078Z,37.20
2022-10-03T05:25:53.355Z,37.00
2022-10-03T05:28:36.770Z,37.00
2022-10-03T05:31:25.137Z,37.00
2022-10-03T05:34:03.216Z,37.10
2022-10-03T05:36:49.959Z,36.90
2022-10-03T05:39:31.825Z,36.50
2022-10-03T05:42:36.368Z,36.90
2022-10-03T05:45:10.806Z,36.60
2022-10-03T05:47:52.013Z,36.80
2022-10-03T05:51:00.236Z,36.80
2022-10-03T05:54:05.975Z,36.60
2022-10-03T05:57:07.822Z,36.80
2022-10-03T06:00:10.068Z,37.10
2022-10-03T06:03:22.619Z,37.10
2022-10-03T06:06:08.106Z,37.10
2022-10-03T06:08:55.793Z,37.20
2022-10-03T06:11:52.777Z,36.70
2022-10-03T06:14:52.005Z,37.00
2022-10-03T06:17:44.054Z,36.70
2022-10-03T06:21:14.662Z,36.70
2022-10-03T06:24:26.565Z,37.00
2022-10-03T06:27:33.750Z,36.40
2022-10-03T06:30:22.790Z,36.60
2022-10-03T06:33:59.122Z,36.80
2022-10-03T06:37:08.006Z,36.70
2022-10-03T06:40:33.636Z,36.10
2022-10-03T06:43:38.278Z,36.20
2022-10-03T06:46:57.308Z,36.20
2022-10-03T06:49:51.792Z,35.90
2022-10-03T06:52:55.452Z,35.80
2022-10-03T06:56:02.377Z,35.80
2022-10-03T06:59:26.241Z,35.60
2022-10-03T07:02:30.044Z,35.50
2022-10-03T07:05:48.709Z,35.70
2022-10-03T07:09:24.381Z,35.70
2022-10-03T07:12:47.483Z,34.90
2022-10-03T07:19:19.950Z,35.00
2022-10-03T07:22:40.080Z,34.70
2022-10-03T07:25:40.929Z,34.40
2022-10-03T07:28:35.449Z,34.60
2022-10-03T07:31:17.679Z,33.00
2022-10-03T07:34:25.365Z,34.40
2022-10-03T07:37:42.521Z,33.10
2022-10-03T07:41:14.344Z,33.90
2022-10-03T07:44:09.879Z,33.90
2022-10-03T07:47:21.550Z,33.60
2022-10-03T07:50:30.131Z,33.30
2022-10-03T07:53:13.826Z,33.40
2022-10-03T07:56:07.226Z,33.20
2022-10-03T07:59:07.029Z,33.10
2022-10-03T08:01:58.491Z,33.10
2022-10-03T08:05:12.141Z,33.10
2022-10-03T08:08:09.298Z,32.90
2022-10-03T08:11:07.883Z,32.80
2022-10-03T08:13:55.972Z,32.60
2022-10-03T08:17:04.986Z,32.40
2022-10-03T08:19:56.270Z,32.30
2022-10-03T08:22:43.446Z,32.10
2022-10-03T08:25:28.132Z,32.10
2022-10-03T08:28:30.329Z,32.00
2022-10-03T08:31:32.938Z,31.90
2022-10-03T08:34:41.222Z,32.20
2022-10-03T08:37:47.589Z,31.70
2022-10-03T08:41:12.854Z,31.80
2022-10-03T08:44:34.993Z,31.70
2022-10-03T08:47:51.609Z,31.50
2022-10-03T08:51:05.220Z,31.60
2022-10-03T08:54:01.329Z,31.60
2022-10-03T08:56:49.519Z,31.30
2022-10-03T09:00:05.808Z,31.30
2022-10-03T09:03:42.088Z,30.90
2022-10-03T09:07:15.815Z,31.10
2022-10-03T09:10:35.164Z,30.90
2022-10-03T09:13:56.942Z,31.10
2022-10-03T09:17:01.465Z,31.10
2022-10-03T09:20:10.396Z,30.90
2022-10-03T09:23:09.116Z,30.70
2022-10-03T09:25:58.557Z,30.70
2022-10-03T09:28:57.300Z,31.00
2022-10-03T09:32:09.699Z,31.10
2022-10-03T09:35:39.457Z,30.90
2022-10-03T09:38:57.080Z,30.80
2022-10-03T09:42:12.328Z,30.30
2022-10-03T09:45:10.035Z,30.20
2022-10-03T09:48:09.669Z,30.20
2022-10-03T09:51:06.237Z,30.20
2022-10-03T09:54:31.884Z,30.40
2022-10-03T09:57:57.780Z,30.30
2022-10-03T10:00:28.685Z,29.90
2022-10-03T10:03:44.541Z,30.00
2022-10-03T10:06:36.045Z,29.40
2022-10-03T10:09:55.441Z,29.80
2022-10-03T10:13:12.482Z,29.60
2022-10-03T10:16:13.535Z,29.80
2022-10-03T10:19:30.615Z,30.00
2022-10-03T10:22:25.856Z,30.00
2022-10-03T10:25:24.759Z,29.50
2022-10-03T10:28:40.795Z,28.60
2022-10-03T10:32:09.767Z,30.70
2022-10-03T10:35:37.780Z,29.70
2022-10-03T10:38:59.062Z,29.30
2022-10-03T10:42:13.748Z,29.20
2022-10-03T10:45:38.869Z,29.00
2022-10-03T10:49:07.825Z,28.70
2022-10-03T10:52:28.003Z,29.10
2022-10-03T10:55:51.383Z,28.50
2022-10-03T10:59:06.873Z,28.70
2022-10-03T11:02:17.957Z,28.70
2022-10-03T11:05:39.423Z,28.50
2022-10-03T11:08:54.897Z,28.90
2022-10-03T11:12:07.140Z,28.60
2022-10-03T11:15:28.341Z,28.70
2022-10-03T11:18:42.681Z,28.80
2022-10-03T11:22:00.540Z,28.60
2022-10-03T11:25:23.283Z,28.60
2022-10-03T11:28:33.989Z,28.80
2022-10-03T11:31:59.458Z,28.80
2022-10-03T11:35:40.801Z,29.20
2022-10-03T11:38:19.006Z,29.40
2022-10-03T11:41:01.299Z,29.50
2022-10-03T11:44:07.146Z,29.50
2022-10-03T11:47:08.248Z,29.90
2022-10-03T11:50:24.385Z,30.30
2022-10-03T11:53:27.288Z,30.60
2022-10-03T11:56:13.744Z,30.60
2022-10-03T11:58:58.307Z,30.70
2022-10-03T12:01:41.327Z,30.20
2022-10-03T12:04:20.406Z,30.60
2022-10-03T12:07:17.792Z,30.80
2022-10-03T12:10:02.836Z,30.50
2022-10-03T12:12:39.236Z,30.70
2022-10-03T12:15:26.676Z,31.00
2022-10-03T12:18:06.449Z,31.40
2022-10-03T12:21:04.936Z,31.00
2022-10-03T12:23:54.985Z,31.20
2022-10-03T12:26:33.773Z,31.80
2022-10-03T12:29:04.696Z,31.40
2022-10-03T12:31:41.562Z,31.20
2022-10-03T12:34:28.518Z,31.50
2022-10-03T12:37:32.184Z,30.70
2022-10-03T12:40:06.948Z,31.20
2022-10-03T12:42:40.806Z,30.90
2022-10-03T12:45:24.120Z,30.90
2022-10-03T12:48:07.353Z,30.90
2022-10-03T12:50:47.100Z,30.90
2022-10-03T12:53:38.673Z,31.00
2022-10-03T12:56:15.445Z,31.00
2022-10-03T12:59:04.684Z,31.20
2022-10-03T13:01:51.242Z,31.20
2022-10-03T13:04:33.305Z,30.90
2022-10-03T13:07:17.028Z,31.30
2022-10-03T13:10:04.944Z,30.80
2022-10-03T13:12:43.295Z,30.80
2022-10-03T13:15:44.485Z,30.80
2022-10-03T13:19:03.008Z,30.90
2022-10-03T13:22:03.245Z,31.10
2022-10-03T13:24:39.581Z,31.00
2022-10-03T13:27:32.726Z,30.40
2022-10-03T13:30:07.679Z,30.90
2022-10-03T13:32:39.249Z,30.60
2022-10-03T13:35:39.860Z,30.60
2022-10-03T13:38:45.770Z,30.40
2022-10-03T13:41:27.943Z,29.90
2022-10-03T13:44:01.980Z,30.60
2022-10-03T13:46:44.392Z,30.80
2022-10-03T13:49:19.782Z,30.60
2022-10-03T13:51:59.268Z,30.40
2022-10-03T13:54:58.537Z,31.10
2022-10-03T13:57:31.149Z,31.00
2022-10-03T14:00:08.323Z,31.20
2022-10-03T14:03:13.666Z,30.40
2022-10-03T14:06:10.706Z,31.50
2022-10-03T14:09:15.001Z,31.80
2022-10-03T14:11:53.364Z,32.60
2022-10-03T14:14:48.190Z,32.10
2022-10-03T14:17:25.088Z,32.30
2022-10-03T14:20:10.603Z,32.00
2022-10-03T14:22:58.839Z,32.40
2022-10-03T14:25:29.948Z,32.20
2022-10-03T14:28:04.855Z,31.70
2022-10-03T14:31:05.160Z,31.90
2022-10-03T14:33:44.931Z,31.40
2022-10-03T14:36:29.713Z,32.00
2022-10-03T14:39:21.966Z,32.20
2022-10-03T14:42:17.743Z,31.90
2022-10-03T14:44:50.342Z,32.00
2022-10-03T14:47:20.210Z,31.90
2022-10-03T14:49:57.979Z,31.80
2022-10-03T14:52:34.764Z,31.90
2022-10-03T14:55:14.091Z,32.30
2022-10-03T14:58:09.336Z,32.30
2022-10-03T15:00:44.047Z,32.50
2022-10-03T15:03:37.845Z,32.30
2022-10-03T15:06:36.220Z,32.60
2022-10-03T15:09:10.948Z,32.50
2022-10-03T15:11:48.705Z,32.40
2022-10-03T15:14:17.511Z,32.40
2022-10-03T15:16:53.700Z,32.80
2022-10-03T15:19:29.627Z,32.30
2022-10-03T15:22:06.540Z,32.70
2022-10-03T15:24:36.360Z,32.50
2022-10-03T15:27:11.305Z,32.70
2022-10-03T15:29:40.195Z,32.70
2022-10-03T15:32:24.090Z,32.50
2022-10-03T15:34:58.077Z,32.50
2022-10-03T15:37:29.126Z,32.80
2022-10-03T15:40:04.506Z,32.70
2022-10-03T15:42:34.521Z,32.60
2022-10-03T15:45:05.917Z,32.80
2022-10-03T15:47:40.196Z,32.60
2022-10-03T15:50:20.046Z,32.40
2022-10-03T15:52:52.345Z,32.60
2022-10-03T15:55:26.843Z,32.80
2022-10-03T15:58:01.007Z,33.00
2022-10-03T16:00:31.973Z,32.70
2022-10-03T16:03:13.079Z,32.80
2022-10-03T16:06:00.668Z,33.00
2022-10-03T16:08:33.320Z,32.90
2022-10-03T16:11:09.102Z,33.00
2022-10-03T16:13:40.788Z,33.00
2022-10-03T16:16:19.086Z,33.20
2022-10-03T16:18:55.464Z,33.00
2022-10-03T16:21:46.364Z,33.10
2022-10-03T16:24:31.408Z,33.20
2022-10-03T16:27:08.968Z,33.40
2022-10-03T16:29:42.388Z,33.40
2022-10-03T16:32:18.356Z,33.20
2022-10-03T16:34:48.665Z,33.30
2022-10-03T16:37:20.942Z,33.50
2022-10-03T16:39:56.744Z,33.30
2022-10-03T16:42:28.897Z,33.60
2022-10-03T16:45:01.511Z,33.40
2022-10-03T16:47:35.064Z,33.40
2022-10-03T16:50:25.686Z,33.50
2022-10-03T16:52:58.575Z,33.20
2022-10-03T16:55:32.219Z,33.20
2022-10-03T16:58:06.765Z,33.10
2022-10-03T17:00:44.698Z,33.10
2022-10-03T17:03:22.061Z,33.10
2022-10-03T17:05:58.689Z,33.30
2022-10-03T17:08:41.971Z,33.20
2022-10-03T17:11:19.582Z,33.40
2022-10-03T17:13:50.694Z,33.30
2022-10-03T17:16:34.261Z,33.30
2022-10-03T17:19:32.561Z,33.70
2022-10-03T17:22:12.873Z,33.60
2022-10-03T17:24:48.459Z,33.80
2022-10-03T17:27:23.885Z,33.80
2022-10-03T17:29:58.621Z,33.80
2022-10-03T17:32:36.093Z,34.10
2022-10-03T17:35:14.264Z,34.00
2022-10-03T17:38:44.693Z,34.40
2022-10-03T17:41:15.151Z,34.00
2022-10-03T17:47:56.708Z,35.00
2022-10-03T17:50:31.275Z,35.00
2022-10-03T17:53:01.575Z,35.20
2022-10-03T17:55:37.879Z,35.50
2022-10-03T17:58:08.657Z,34.10
2022-10-03T18:01:02.157Z,35.60
2022-10-03T18:03:36.157Z,35.60
2022-10-03T18:06:43.409Z,35.40
2022-10-03T18:09:26.563Z,35.90
2022-10-03T18:12:05.896Z,35.60
2022-10-03T18:14:47.998Z,36.20
2022-10-03T18:17:22.961Z,35.70
2022-10-03T18:20:07.104Z,35.80
2022-10-03T18:22:40.996Z,36.30
2022-10-03T18:25:35.301Z,36.10
2022-10-03T18:28:20.296Z,36.60
2022-10-03T18:30:53.804Z,36.20
2022-10-03T18:33:30.123Z,36.20
2022-10-03T18:35:59.102Z,36.30
2022-10-03T18:38:29.719Z,37.10
2022-10-03T18:40:59.740Z,36.00
2022-10-03T18:43:36.810Z,36.30
2022-10-03T18:46:15.326Z,36.30
2022-10-03T18:51:54.287Z,36.50
2022-10-03T18:54:35.363Z,36.90
2022-10-03T18:57:14.391Z,36.40
2022-10-03T18:59:52.583Z,36.80
2022-10-03T19:02:28.023Z,37.20
2022-10-03T19:05:01.111Z,37.10
2022-10-03T19:07:34.493Z,37.30
2022-10-03T19:10:25.584Z,37.60
2022-10-03T19:13:02.628Z,37.60
2022-10-03T19:15:48.957Z,37.40
2022-10-03T19:18:27.741Z,37.10
2022-10-03T19:20:58.870Z,37.30
2022-10-03T19:23:32.036Z,37.70
2022-10-03T19:26:05.416Z,37.50
2022-10-03T19:28:37.785Z,37.40
2022-10-03T19:31:15.361Z,37.30
2022-10-03T19:33:48.333Z,37.70
2022-10-03T19:36:22.106Z,37.90
2022-10-03T19:38:50.941Z,37.60
2022-10-03T19:41:29.713Z,37.60
2022-10-03T19:44:04.815Z,37.80
2022-10-03T19:46:52.865Z,37.60
2022-10-03T19:49:37.535Z,37.70
2022-10-03T19:52:18.361Z,38.00
2022-10-03T19:54:53.545Z,38.50
2022-10-03T19:57:26.796Z,38.20
2022-10-03T20:00:00.095Z,37.90
2022-10-03T20:02:30.533Z,38.20
2022-10-03T20:04:59.105Z,38.20
2022-10-03T20:07:45.518Z,37.90
2022-10-03T20:10:34.157Z,38.50
2022-10-03T20:13:03.855Z,38.30
2022-10-03T20:15:43.815Z,38.50
2022-10-03T20:18:24.736Z,38.60
2022-10-03T20:20:55.841Z,38.50
2022-10-03T20:23:28.509Z,38.70
2022-10-03T20:26:01.863Z,38.30
2022-10-03T20:29:04.639Z,38.60
2022-10-03T20:31:33.593Z,38.70
2022-10-03T20:34:08.127Z,38.60
2022-10-03T20:36:42.697Z,38.40
2022-10-03T20:39:17.262Z,38.70
2022-10-03T20:42:00.347Z,38.60
2022-10-03T20:44:57.812Z,38.70
2022-10-03T20:47:58.919Z,39.10
2022-10-03T20:50:34.099Z,39.10
2022-10-03T20:53:04.185Z,39.10
2022-10-03T20:55:38.238Z,39.00
2022-10-03T20:58:16.215Z,39.30
2022-10-03T21:00:49.326Z,39.70
2022-10-03T21:03:30.541Z,39.30
2022-10-03T21:06:01.684Z,39.20
2022-10-03T21:08:36.591Z,39.40
2022-10-03T21:11:16.737Z,39.50
2022-10-03T21:13:49.729Z,39.50
2022-10-03T21:16:22.587Z,39.20
2022-10-03T21:18:53.257Z,39.50
2022-10-03T21:21:31.115Z,39.80
2022-10-03T21:24:07.816Z,39.40
2022-10-03T21:26:44.422Z,39.20
2022-10-03T21:29:30.960Z,40.20
2022-10-03T21:32:31.187Z,39.40
2022-10-03T21:35:11.716Z,39.50
2022-10-03T21:37:50.640Z,40.00
2022-10-03T21:40:48.723Z,40.40
2022-10-03T21:43:38.543Z,40.60
2022-10-03T21:46:17.472Z,40.50
2022-10-03T21:49:08.070Z,40.60
2022-10-03T21:51:59.172Z,40.70
2022-10-03T21:54:37.800Z,40.80
2022-10-03T21:57:15.109Z,40.90
2022-10-03T22:00:12.016Z,40.90
2022-10-03T22:02:57.735Z,41.10
2022-10-03T22:05:39.632Z,41.10
2022-10-03T22:08:24.359Z,41.00
2022-10-03T22:11:09.600Z,41.00
2022-10-03T22:13:42.356Z,41.40
2022-10-03T22:16:21.249Z,41.10
2022-10-03T22:19:18.982Z,41.40
2022-10-03T22:22:09.831Z,41.30
2022-10-03T22:24:51.917Z,41.70
2022-10-03T22:27:28.107Z,41.70
2022-10-03T22:30:05.116Z,41.30
2022-10-03T22:32:41.702Z,41.60
2022-10-03T22:35:28.108Z,41.80
2022-10-03T22:37:56.993Z,41.90
2022-10-03T22:40:25.845Z,41.90
2022-10-03T22:42:59.721Z,42.10
2022-10-03T22:45:31.239Z,42.20
2022-10-03T22:48:04.044Z,41.60
2022-10-03T22:50:35.962Z,42.20
2022-10-03T22:53:05.196Z,42.30
2022-10-03T22:55:33.948Z,42.20
2022-10-03T22:58:06.266Z,42.60
2022-10-03T23:00:35.885Z,42.70
2022-10-03T23:03:10.542Z,42.70
2022-10-03T23:06:18.836Z,42.30
2022-10-03T23:09:00.276Z,42.70
2022-10-03T23:11:30.940Z,42.80
2022-10-03T23:14:10.083Z,43.10
2022-10-03T23:16:52.545Z,43.20
2022-10-03T23:19:36.744Z,43.40
2022-10-03T23:22:06.928Z,43.30
2022-10-03T23:24:42.329Z,43.80
2022-10-03T23:27:44.472Z,44.00
2022-10-03T23:30:53.875Z,43.90
2022-10-03T23:34:01.758Z,43.90
2022-10-03T23:36:31.651Z,43.60
2022-10-03T23:39:01.342Z,44.00
2022-10-03T23:41:58.941Z,44.30
2022-10-03T23:44:48.866Z,44.10
2022-10-03T23:47:21.616Z,44.20
2022-10-03T23:49:51.839Z,44.10
2022-10-03T23:52:26.061Z,44.20
2022-10-03T23:54:58.385Z,44.00
2022-10-03T23:57:42.463Z,44.40
